sensor_id;sensor_type;location;lat;lon;timestamp;P1;durP1;ratioP1;P2;durP2;ratioP2
17965;SDS011;9108;53.204;10.424;2022-09-09T00:00:42;55.35;;;18.95;;
17965;SDS011;9108;53.204;10.424;2022-09-09T00:03:11;57.58;;;18.50;;
17965;SDS011;9108;53.204;10.424;2022-09-09T00:05:41;54.10;;;19.30;;
17965;SDS011;9108;53.204;10.424;2022-09-09T00:08:12;67.82;;;19.00;;
17965;SDS011;9108;53.204;10.424;2022-09-09T00:10:41;47.13;;;17.83;;
17965;SDS011;9108;53.204;10.424;2022-09-09T00:13:13;49.67;;;17.90;;
17965;SDS011;9108;53.204;10.424;2022-09-09T00:15:45;53.25;;;17.90;;
17965;SDS011;9108;53.204;10.424;2022-09-09T00:18:16;52.28;;;18.45;;
17965;SDS011;9108;53.204;10.424;2022-09-09T00:20:45;50.77;;;18.30;;
17965;SDS011;9108;53.204;10.424;2022-09-09T00:23:17;49.85;;;18.13;;
17965;SDS011;9108;53.204;10.424;2022-09-09T00:25:48;50.63;;;18.23;;
17965;SDS011;9108;53.204;10.424;2022-09-09T00:28:18;50.72;;;18.75;;
17965;SDS011;9108;53.204;10.424;2022-09-09T00:30:46;54.25;;;19.05;;
17965;SDS011;9108;53.204;10.424;2022-09-09T00:33:14;51.58;;;18.33;;
17965;SDS011;9108;53.204;10.424;2022-09-09T00:35:44;51.08;;;18.65;;
17965;SDS011;9108;53.204;10.424;2022-09-09T00:38:12;53.60;;;18.87;;
17965;SDS011;9108;53.204;10.424;2022-09-09T00:40:41;53.85;;;19.15;;
17965;SDS011;9108;53.204;10.424;2022-09-09T00:43:20;56.33;;;19.17;;
17965;SDS011;9108;53.204;10.424;2022-09-09T00:45:54;56.05;;;19.02;;
17965;SDS011;9108;53.204;10.424;2022-09-09T00:48:24;55.63;;;18.65;;
17965;SDS011;9108;53.204;10.424;2022-09-09T00:50:55;50.80;;;17.83;;
17965;SDS011;9108;53.204;10.424;2022-09-09T00:53:27;87.53;;;19.13;;
17965;SDS011;9108;53.204;10.424;2022-09-09T00:55:56;54.95;;;18.77;;
17965;SDS011;9108;53.204;10.424;2022-09-09T00:58:27;45.28;;;17.60;;
17965;SDS011;9108;53.204;10.424;2022-09-09T01:00:57;53.95;;;17.08;;
17965;SDS011;9108;53.204;10.424;2022-09-09T01:03:27;53.70;;;16.70;;
17965;SDS011;9108;53.204;10.424;2022-09-09T01:06:01;88.80;;;16.37;;
17965;SDS011;9108;53.204;10.424;2022-09-09T01:08:50;70.43;;;17.08;;
17965;SDS011;9108;53.204;10.424;2022-09-09T01:11:21;97.38;;;16.50;;
17965;SDS011;9108;53.204;10.424;2022-09-09T01:13:52;186.32;;;18.42;;
17965;SDS011;9108;53.204;10.424;2022-09-09T01:16:25;145.93;;;18.30;;
17965;SDS011;9108;53.204;10.424;2022-09-09T01:18:53;141.70;;;18.07;;
17965;SDS011;9108;53.204;10.424;2022-09-09T01:21:22;127.70;;;18.08;;
17965;SDS011;9108;53.204;10.424;2022-09-09T01:24:13;84.23;;;17.77;;
17965;SDS011;9108;53.204;10.424;2022-09-09T01:26:45;133.73;;;17.98;;
17965;SDS011;9108;53.204;10.424;2022-09-09T01:29:13;137.45;;;18.50;;
17965;SDS011;9108;53.204;10.424;2022-09-09T01:31:41;69.32;;;17.38;;
17965;SDS011;9108;53.204;10.424;2022-09-09T01:34:09;167.63;;;18.73;;
17965;SDS011;9108;53.204;10.424;2022-09-09T01:36:38;96.90;;;18.23;;
17965;SDS011;9108;53.204;10.424;2022-09-09T01:39:07;71.87;;;18.67;;
17965;SDS011;9108;53.204;10.424;2022-09-09T01:41:34;124.70;;;17.75;;
17965;SDS011;9108;53.204;10.424;2022-09-09T01:44:02;51.88;;;17.23;;
17965;SDS011;9108;53.204;10.424;2022-09-09T01:46:30;55.65;;;16.75;;
17965;SDS011;9108;53.204;10.424;2022-09-09T01:48:57;76.75;;;17.80;;
17965;SDS011;9108;53.204;10.424;2022-09-09T01:51:25;77.03;;;18.58;;
17965;SDS011;9108;53.204;10.424;2022-09-09T01:53:52;57.10;;;18.23;;
17965;SDS011;9108;53.204;10.424;2022-09-09T01:56:26;59.95;;;17.55;;
17965;SDS011;9108;53.204;10.424;2022-09-09T01:59:05;51.42;;;17.80;;
17965;SDS011;9108;53.204;10.424;2022-09-09T02:01:38;47.22;;;17.67;;
17965;SDS011;9108;53.204;10.424;2022-09-09T02:04:08;43.08;;;16.80;;
17965;SDS011;9108;53.204;10.424;2022-09-09T02:06:39;42.15;;;16.30;;
17965;SDS011;9108;53.204;10.424;2022-09-09T02:09:07;38.15;;;15.40;;
17965;SDS011;9108;53.204;10.424;2022-09-09T02:11:36;41.50;;;16.45;;
17965;SDS011;9108;53.204;10.424;2022-09-09T02:14:06;43.78;;;17.10;;
17965;SDS011;9108;53.204;10.424;2022-09-09T02:16:36;41.10;;;16.48;;
17965;SDS011;9108;53.204;10.424;2022-09-09T02:19:06;40.00;;;16.88;;
17965;SDS011;9108;53.204;10.424;2022-09-09T02:21:33;39.70;;;16.40;;
17965;SDS011;9108;53.204;10.424;2022-09-09T02:24:02;35.95;;;15.60;;
17965;SDS011;9108;53.204;10.424;2022-09-09T02:26:30;37.65;;;16.13;;
17965;SDS011;9108;53.204;10.424;2022-09-09T02:28:58;36.58;;;15.52;;
17965;SDS011;9108;53.204;10.424;2022-09-09T02:31:27;32.22;;;14.77;;
17965;SDS011;9108;53.204;10.424;2022-09-09T02:33:55;32.40;;;14.90;;
17965;SDS011;9108;53.204;10.424;2022-09-09T02:36:24;37.63;;;12.93;;
17965;SDS011;9108;53.204;10.424;2022-09-09T02:38:52;32.70;;;14.02;;
17965;SDS011;9108;53.204;10.424;2022-09-09T02:41:19;41.60;;;13.83;;
17965;SDS011;9108;53.204;10.424;2022-09-09T02:43:47;40.10;;;15.63;;
17965;SDS011;9108;53.204;10.424;2022-09-09T02:46:19;35.85;;;14.90;;
17965;SDS011;9108;53.204;10.424;2022-09-09T02:48:52;37.08;;;15.20;;
17965;SDS011;9108;53.204;10.424;2022-09-09T02:51:23;44.10;;;15.30;;
17965;SDS011;9108;53.204;10.424;2022-09-09T02:53:54;35.38;;;15.20;;
17965;SDS011;9108;53.204;10.424;2022-09-09T02:56:22;37.42;;;15.40;;
17965;SDS011;9108;53.204;10.424;2022-09-09T02:58:53;35.08;;;15.07;;
17965;SDS011;9108;53.204;10.424;2022-09-09T03:01:20;39.03;;;15.88;;
17965;SDS011;9108;53.204;10.424;2022-09-09T03:03:48;40.35;;;16.23;;
17965;SDS011;9108;53.204;10.424;2022-09-09T03:06:16;40.10;;;16.57;;
17965;SDS011;9108;53.204;10.424;2022-09-09T03:08:43;35.13;;;15.27;;
17965;SDS011;9108;53.204;10.424;2022-09-09T03:11:10;35.72;;;16.10;;
17965;SDS011;9108;53.204;10.424;2022-09-09T03:13:39;34.03;;;15.30;;
17965;SDS011;9108;53.204;10.424;2022-09-09T03:16:06;34.80;;;15.30;;
17965;SDS011;9108;53.204;10.424;2022-09-09T03:18:33;33.97;;;14.77;;
17965;SDS011;9108;53.204;10.424;2022-09-09T03:21:00;34.03;;;15.07;;
17965;SDS011;9108;53.204;10.424;2022-09-09T03:23:28;36.83;;;15.57;;
17965;SDS011;9108;53.204;10.424;2022-09-09T03:25:55;38.97;;;15.73;;
17965;SDS011;9108;53.204;10.424;2022-09-09T03:28:23;39.10;;;16.42;;
17965;SDS011;9108;53.204;10.424;2022-09-09T03:30:57;41.83;;;16.63;;
17965;SDS011;9108;53.204;10.424;2022-09-09T03:33:24;38.50;;;15.77;;
17965;SDS011;9108;53.204;10.424;2022-09-09T03:35:51;34.88;;;15.32;;
17965;SDS011;9108;53.204;10.424;2022-09-09T03:38:21;34.72;;;14.27;;
17965;SDS011;9108;53.204;10.424;2022-09-09T03:40:51;30.60;;;13.85;;
17965;SDS011;9108;53.204;10.424;2022-09-09T03:43:20;35.80;;;14.90;;
17965;SDS011;9108;53.204;10.424;2022-09-09T03:45:47;38.95;;;15.32;;
17965;SDS011;9108;53.204;10.424;2022-09-09T03:48:14;39.40;;;16.05;;
17965;SDS011;9108;53.204;10.424;2022-09-09T03:50:43;43.58;;;16.50;;
17965;SDS011;9108;53.204;10.424;2022-09-09T03:53:11;42.00;;;16.60;;
17965;SDS011;9108;53.204;10.424;2022-09-09T03:55:38;39.53;;;16.25;;
17965;SDS011;9108;53.204;10.424;2022-09-09T03:58:08;36.53;;;15.27;;
17965;SDS011;9108;53.204;10.424;2022-09-09T04:00:35;35.07;;;14.90;;
17965;SDS011;9108;53.204;10.424;2022-09-09T04:03:09;33.63;;;14.52;;
17965;SDS011;9108;53.204;10.424;2022-09-09T04:05:37;29.63;;;13.48;;
17965;SDS011;9108;53.204;10.424;2022-09-09T04:08:07;29.38;;;13.45;;
17965;SDS011;9108;53.204;10.424;2022-09-09T04:10:34;26.23;;;12.48;;
17965;SDS011;9108;53.204;10.424;2022-09-09T04:13:02;31.08;;;13.70;;
17965;SDS011;9108;53.204;10.424;2022-09-09T04:15:30;30.13;;;13.40;;
17965;SDS011;9108;53.204;10.424;2022-09-09T04:17:58;31.02;;;13.98;;
17965;SDS011;9108;53.204;10.424;2022-09-09T04:20:25;32.60;;;13.77;;
17965;SDS011;9108;53.204;10.424;2022-09-09T04:22:52;33.00;;;13.13;;
17965;SDS011;9108;53.204;10.424;2022-09-09T04:25:19;31.73;;;13.65;;
17965;SDS011;9108;53.204;10.424;2022-09-09T04:27:46;30.95;;;13.63;;
17965;SDS011;9108;53.204;10.424;2022-09-09T04:30:16;26.90;;;12.00;;
17965;SDS011;9108;53.204;10.424;2022-09-09T04:32:45;23.67;;;11.20;;
17965;SDS011;9108;53.204;10.424;2022-09-09T04:35:12;24.27;;;11.82;;
17965;SDS011;9108;53.204;10.424;2022-09-09T04:37:41;24.52;;;12.27;;
17965;SDS011;9108;53.204;10.424;2022-09-09T04:40:09;21.83;;;11.07;;
17965;SDS011;9108;53.204;10.424;2022-09-09T04:42:37;25.02;;;11.40;;
17965;SDS011;9108;53.204;10.424;2022-09-09T04:45:05;20.08;;;10.00;;
17965;SDS011;9108;53.204;10.424;2022-09-09T04:47:32;19.13;;;9.85;;
17965;SDS011;9108;53.204;10.424;2022-09-09T04:50:02;19.45;;;10.20;;
17965;SDS011;9108;53.204;10.424;2022-09-09T04:52:30;21.15;;;9.90;;
17965;SDS011;9108;53.204;10.424;2022-09-09T04:54:57;20.55;;;10.02;;
17965;SDS011;9108;53.204;10.424;2022-09-09T04:57:25;21.98;;;10.48;;
17965;SDS011;9108;53.204;10.424;2022-09-09T04:59:52;20.70;;;10.20;;
17965;SDS011;9108;53.204;10.424;2022-09-09T05:02:19;21.77;;;9.70;;
17965;SDS011;9108;53.204;10.424;2022-09-09T05:04:46;20.00;;;9.40;;
17965;SDS011;9108;53.204;10.424;2022-09-09T05:07:15;19.48;;;9.60;;
17965;SDS011;9108;53.204;10.424;2022-09-09T05:09:42;23.45;;;9.90;;
17965;SDS011;9108;53.204;10.424;2022-09-09T05:12:10;20.05;;;9.70;;
17965;SDS011;9108;53.204;10.424;2022-09-09T05:14:37;20.95;;;8.82;;
17965;SDS011;9108;53.204;10.424;2022-09-09T05:17:04;16.67;;;9.00;;
17965;SDS011;9108;53.204;10.424;2022-09-09T05:19:31;15.05;;;7.97;;
17965;SDS011;9108;53.204;10.424;2022-09-09T05:21:58;16.30;;;7.70;;
17965;SDS011;9108;53.204;10.424;2022-09-09T05:24:27;12.75;;;7.10;;
17965;SDS011;9108;53.204;10.424;2022-09-09T05:26:54;14.63;;;7.28;;
17965;SDS011;9108;53.204;10.424;2022-09-09T05:29:24;14.13;;;6.90;;
17965;SDS011;9108;53.204;10.424;2022-09-09T05:31:52;14.30;;;6.70;;
17965;SDS011;9108;53.204;10.424;2022-09-09T05:34:19;17.83;;;7.97;;
17965;SDS011;9108;53.204;10.424;2022-09-09T05:36:46;14.02;;;7.55;;
17965;SDS011;9108;53.204;10.424;2022-09-09T05:39:13;13.30;;;6.23;;
17965;SDS011;9108;53.204;10.424;2022-09-09T05:41:45;13.57;;;5.40;;
17965;SDS011;9108;53.204;10.424;2022-09-09T05:44:13;9.60;;;5.00;;
17965;SDS011;9108;53.204;10.424;2022-09-09T05:46:40;9.55;;;4.88;;
17965;SDS011;9108;53.204;10.424;2022-09-09T05:49:07;10.32;;;4.75;;
17965;SDS011;9108;53.204;10.424;2022-09-09T05:51:35;10.52;;;4.32;;
17965;SDS011;9108;53.204;10.424;2022-09-09T05:54:02;11.00;;;4.40;;
17965;SDS011;9108;53.204;10.424;2022-09-09T05:56:29;10.07;;;4.38;;
17965;SDS011;9108;53.204;10.424;2022-09-09T05:58:58;8.95;;;4.40;;
17965;SDS011;9108;53.204;10.424;2022-09-09T06:01:26;9.18;;;4.68;;
17965;SDS011;9108;53.204;10.424;2022-09-09T06:03:53;10.00;;;4.72;;
17965;SDS011;9108;53.204;10.424;2022-09-09T06:06:21;12.25;;;4.72;;
17965;SDS011;9108;53.204;10.424;2022-09-09T06:08:50;9.65;;;4.57;;
17965;SDS011;9108;53.204;10.424;2022-09-09T06:11:18;11.90;;;4.70;;
17965;SDS011;9108;53.204;10.424;2022-09-09T06:13:45;11.05;;;4.60;;
17965;SDS011;9108;53.204;10.424;2022-09-09T06:16:16;12.88;;;4.88;;
17965;SDS011;9108;53.204;10.424;2022-09-09T06:18:44;9.98;;;4.70;;
17965;SDS011;9108;53.204;10.424;2022-09-09T06:21:14;9.05;;;4.30;;
17965;SDS011;9108;53.204;10.424;2022-09-09T06:23:42;11.30;;;4.38;;
17965;SDS011;9108;53.204;10.424;2022-09-09T06:26:10;9.95;;;4.28;;
17965;SDS011;9108;53.204;10.424;2022-09-09T06:28:38;9.03;;;4.53;;
17965;SDS011;9108;53.204;10.424;2022-09-09T06:31:05;11.07;;;4.50;;
17965;SDS011;9108;53.204;10.424;2022-09-09T06:33:35;7.93;;;4.03;;
17965;SDS011;9108;53.204;10.424;2022-09-09T06:36:04;7.95;;;4.10;;
17965;SDS011;9108;53.204;10.424;2022-09-09T06:38:31;8.65;;;3.70;;
17965;SDS011;9108;53.204;10.424;2022-09-09T06:40:59;8.27;;;3.70;;
17965;SDS011;9108;53.204;10.424;2022-09-09T06:43:27;8.43;;;4.07;;
17965;SDS011;9108;53.204;10.424;2022-09-09T06:45:54;7.78;;;3.58;;
17965;SDS011;9108;53.204;10.424;2022-09-09T06:48:22;7.85;;;4.03;;
17965;SDS011;9108;53.204;10.424;2022-09-09T06:50:52;7.72;;;3.50;;
17965;SDS011;9108;53.204;10.424;2022-09-09T06:53:26;8.18;;;3.78;;
17965;SDS011;9108;53.204;10.424;2022-09-09T06:55:53;6.10;;;3.40;;
17965;SDS011;9108;53.204;10.424;2022-09-09T06:58:20;6.35;;;3.08;;
17965;SDS011;9108;53.204;10.424;2022-09-09T07:00:48;7.43;;;2.75;;
17965;SDS011;9108;53.204;10.424;2022-09-09T07:03:15;7.63;;;2.75;;
17965;SDS011;9108;53.204;10.424;2022-09-09T07:05:42;4.82;;;2.13;;
17965;SDS011;9108;53.204;10.424;2022-09-09T07:08:11;4.80;;;1.90;;
17965;SDS011;9108;53.204;10.424;2022-09-09T07:10:39;6.88;;;2.00;;
17965;SDS011;9108;53.204;10.424;2022-09-09T07:13:06;4.13;;;1.73;;
17965;SDS011;9108;53.204;10.424;2022-09-09T07:15:34;4.32;;;1.60;;
17965;SDS011;9108;53.204;10.424;2022-09-09T07:18:02;6.20;;;1.67;;
17965;SDS011;9108;53.204;10.424;2022-09-09T07:20:30;4.38;;;1.50;;
17965;SDS011;9108;53.204;10.424;2022-09-09T07:22:57;4.30;;;1.30;;
17965;SDS011;9108;53.204;10.424;2022-09-09T07:25:25;4.35;;;1.40;;
17965;SDS011;9108;53.204;10.424;2022-09-09T07:27:54;3.72;;;1.20;;
17965;SDS011;9108;53.204;10.424;2022-09-09T07:30:22;2.70;;;1.10;;
17965;SDS011;9108;53.204;10.424;2022-09-09T07:32:50;3.15;;;1.30;;
17965;SDS011;9108;53.204;10.424;2022-09-09T07:35:17;5.70;;;1.40;;
17965;SDS011;9108;53.204;10.424;2022-09-09T07:37:45;2.70;;;1.20;;
17965;SDS011;9108;53.204;10.424;2022-09-09T07:40:12;3.90;;;1.23;;
17965;SDS011;9108;53.204;10.424;2022-09-09T07:42:41;5.65;;;1.25;;
17965;SDS011;9108;53.204;10.424;2022-09-09T07:45:08;4.87;;;1.40;;
17965;SDS011;9108;53.204;10.424;2022-09-09T07:47:35;4.47;;;1.30;;
17965;SDS011;9108;53.204;10.424;2022-09-09T07:50:02;2.95;;;1.33;;
17965;SDS011;9108;53.204;10.424;2022-09-09T07:52:29;3.20;;;1.35;;
17965;SDS011;9108;53.204;10.424;2022-09-09T07:54:56;7.03;;;1.50;;
17965;SDS011;9108;53.204;10.424;2022-09-09T07:57:24;5.40;;;1.40;;
17965;SDS011;9108;53.204;10.424;2022-09-09T07:59:53;3.43;;;1.40;;
17965;SDS011;9108;53.204;10.424;2022-09-09T08:02:21;6.18;;;1.50;;
17965;SDS011;9108;53.204;10.424;2022-09-09T08:04:48;3.88;;;1.40;;
17965;SDS011;9108;53.204;10.424;2022-09-09T08:07:16;5.07;;;1.60;;
17965;SDS011;9108;53.204;10.424;2022-09-09T08:09:44;4.88;;;1.33;;
17965;SDS011;9108;53.204;10.424;2022-09-09T08:12:12;3.08;;;1.08;;
17965;SDS011;9108;53.204;10.424;2022-09-09T08:14:39;3.65;;;1.30;;
17965;SDS011;9108;53.204;10.424;2022-09-09T08:17:07;3.97;;;1.20;;
17965;SDS011;9108;53.204;10.424;2022-09-09T08:19:34;2.70;;;1.40;;
17965;SDS011;9108;53.204;10.424;2022-09-09T08:22:02;2.58;;;1.20;;
17965;SDS011;9108;53.204;10.424;2022-09-09T08:24:29;5.28;;;1.40;;
17965;SDS011;9108;53.204;10.424;2022-09-09T08:26:56;4.70;;;1.30;;
17965;SDS011;9108;53.204;10.424;2022-09-09T08:29:23;4.35;;;1.30;;
17965;SDS011;9108;53.204;10.424;2022-09-09T08:31:51;3.78;;;1.40;;
17965;SDS011;9108;53.204;10.424;2022-09-09T08:34:20;6.03;;;1.50;;
17965;SDS011;9108;53.204;10.424;2022-09-09T08:36:48;5.38;;;1.60;;
17965;SDS011;9108;53.204;10.424;2022-09-09T08:39:16;6.05;;;1.55;;
17965;SDS011;9108;53.204;10.424;2022-09-09T08:41:48;4.43;;;1.58;;
17965;SDS011;9108;53.204;10.424;2022-09-09T08:44:20;6.07;;;1.70;;
17965;SDS011;9108;53.204;10.424;2022-09-09T08:46:51;5.13;;;1.60;;
17965;SDS011;9108;53.204;10.424;2022-09-09T08:49:30;4.23;;;1.43;;
17965;SDS011;9108;53.204;10.424;2022-09-09T08:52:03;6.88;;;1.50;;
17965;SDS011;9108;53.204;10.424;2022-09-09T08:54:35;3.65;;;1.10;;
17965;SDS011;9108;53.204;10.424;2022-09-09T08:57:02;3.13;;;1.08;;
17965;SDS011;9108;53.204;10.424;2022-09-09T08:59:30;2.50;;;1.10;;
17965;SDS011;9108;53.204;10.424;2022-09-09T09:02:00;4.20;;;1.17;;
17965;SDS011;9108;53.204;10.424;2022-09-09T09:04:36;4.05;;;1.10;;
17965;SDS011;9108;53.204;10.424;2022-09-09T09:07:08;6.45;;;1.23;;
17965;SDS011;9108;53.204;10.424;2022-09-09T09:09:40;3.83;;;1.13;;
17965;SDS011;9108;53.204;10.424;2022-09-09T09:12:13;5.05;;;1.52;;
17965;SDS011;9108;53.204;10.424;2022-09-09T09:14:42;5.05;;;1.08;;
17965;SDS011;9108;53.204;10.424;2022-09-09T09:17:11;4.18;;;1.20;;
17965;SDS011;9108;53.204;10.424;2022-09-09T09:19:41;3.60;;;1.20;;
17965;SDS011;9108;53.204;10.424;2022-09-09T09:22:10;5.53;;;1.20;;
17965;SDS011;9108;53.204;10.424;2022-09-09T09:24:42;3.05;;;1.40;;
17965;SDS011;9108;53.204;10.424;2022-09-09T09:27:12;4.38;;;1.33;;
17965;SDS011;9108;53.204;10.424;2022-09-09T09:29:40;4.78;;;1.50;;
17965;SDS011;9108;53.204;10.424;2022-09-09T09:32:09;6.50;;;1.70;;
17965;SDS011;9108;53.204;10.424;2022-09-09T09:34:39;3.65;;;1.42;;
17965;SDS011;9108;53.204;10.424;2022-09-09T09:37:11;6.32;;;1.35;;
17965;SDS011;9108;53.204;10.424;2022-09-09T09:39:39;5.90;;;1.60;;
17965;SDS011;9108;53.204;10.424;2022-09-09T09:42:07;4.55;;;1.40;;
17965;SDS011;9108;53.204;10.424;2022-09-09T09:44:39;7.32;;;1.40;;
17965;SDS011;9108;53.204;10.424;2022-09-09T09:47:07;5.03;;;1.30;;
17965;SDS011;9108;53.204;10.424;2022-09-09T09:49:34;4.88;;;1.30;;
17965;SDS011;9108;53.204;10.424;2022-09-09T09:52:03;3.83;;;1.30;;
17965;SDS011;9108;53.204;10.424;2022-09-09T09:54:33;4.07;;;1.17;;
17965;SDS011;9108;53.204;10.424;2022-09-09T09:57:07;4.93;;;1.27;;
17965;SDS011;9108;53.204;10.424;2022-09-09T09:59:35;4.13;;;1.20;;
17965;SDS011;9108;53.204;10.424;2022-09-09T10:02:14;4.27;;;1.20;;
17965;SDS011;9108;53.204;10.424;2022-09-09T10:04:42;4.20;;;1.30;;
17965;SDS011;9108;53.204;10.424;2022-09-09T10:07:11;3.55;;;1.13;;
17965;SDS011;9108;53.204;10.424;2022-09-09T10:09:39;5.43;;;1.27;;
17965;SDS011;9108;53.204;10.424;2022-09-09T10:12:09;4.22;;;1.25;;
17965;SDS011;9108;53.204;10.424;2022-09-09T10:14:41;4.40;;;1.15;;
17965;SDS011;9108;53.204;10.424;2022-09-09T10:17:14;3.72;;;1.00;;
17965;SDS011;9108;53.204;10.424;2022-09-09T10:19:47;3.13;;;1.00;;
17965;SDS011;9108;53.204;10.424;2022-09-09T10:22:23;5.67;;;0.93;;
17965;SDS011;9108;53.204;10.424;2022-09-09T10:25:01;6.57;;;1.10;;
17965;SDS011;9108;53.204;10.424;2022-09-09T10:27:32;4.20;;;1.17;;
17965;SDS011;9108;53.204;10.424;2022-09-09T10:30:08;4.72;;;0.90;;
17965;SDS011;9108;53.204;10.424;2022-09-09T10:32:37;3.58;;;1.10;;
17965;SDS011;9108;53.204;10.424;2022-09-09T10:35:09;3.63;;;1.00;;
17965;SDS011;9108;53.204;10.424;2022-09-09T10:37:41;4.90;;;1.10;;
17965;SDS011;9108;53.204;10.424;2022-09-09T10:40:17;3.58;;;0.80;;
17965;SDS011;9108;53.204;10.424;2022-09-09T10:42:45;3.03;;;0.93;;
17965;SDS011;9108;53.204;10.424;2022-09-09T10:45:15;2.63;;;0.90;;
17965;SDS011;9108;53.204;10.424;2022-09-09T10:47:47;2.78;;;0.95;;
17965;SDS011;9108;53.204;10.424;2022-09-09T10:53:17;3.50;;;0.82;;
17965;SDS011;9108;53.204;10.424;2022-09-09T10:55:50;4.23;;;0.87;;
17965;SDS011;9108;53.204;10.424;2022-09-09T10:58:20;3.80;;;0.90;;
17965;SDS011;9108;53.204;10.424;2022-09-09T11:00:50;5.75;;;1.00;;
17965;SDS011;9108;53.204;10.424;2022-09-09T11:03:19;2.50;;;0.90;;
17965;SDS011;9108;53.204;10.424;2022-09-09T11:05:48;3.63;;;1.00;;
17965;SDS011;9108;53.204;10.424;2022-09-09T11:08:18;3.70;;;1.00;;
17965;SDS011;9108;53.204;10.424;2022-09-09T11:10:46;2.85;;;0.85;;
17965;SDS011;9108;53.204;10.424;2022-09-09T11:13:19;4.32;;;0.70;;
17965;SDS011;9108;53.204;10.424;2022-09-09T11:15:49;3.45;;;0.88;;
17965;SDS011;9108;53.204;10.424;2022-09-09T11:18:19;3.30;;;0.75;;
17965;SDS011;9108;53.204;10.424;2022-09-09T11:20:47;3.13;;;0.77;;
17965;SDS011;9108;53.204;10.424;2022-09-09T11:23:15;2.88;;;0.80;;
17965;SDS011;9108;53.204;10.424;2022-09-09T11:25:45;3.42;;;0.80;;
17965;SDS011;9108;53.204;10.424;2022-09-09T11:28:22;1.98;;;0.70;;
17965;SDS011;9108;53.204;10.424;2022-09-09T11:30:54;3.50;;;0.80;;
17965;SDS011;9108;53.204;10.424;2022-09-09T11:33:30;2.97;;;0.70;;
17965;SDS011;9108;53.204;10.424;2022-09-09T11:36:13;4.45;;;1.00;;
17965;SDS011;9108;53.204;10.424;2022-09-09T11:38:45;5.00;;;0.98;;
17965;SDS011;9108;53.204;10.424;2022-09-09T11:41:12;11.25;;;1.42;;
17965;SDS011;9108;53.204;10.424;2022-09-09T11:43:43;6.07;;;1.30;;
17965;SDS011;9108;53.204;10.424;2022-09-09T11:46:11;4.20;;;1.10;;
17965;SDS011;9108;53.204;10.424;2022-09-09T11:48:40;3.78;;;1.33;;
17965;SDS011;9108;53.204;10.424;2022-09-09T11:51:11;5.05;;;1.67;;
17965;SDS011;9108;53.204;10.424;2022-09-09T11:53:48;4.07;;;1.40;;
17965;SDS011;9108;53.204;10.424;2022-09-09T11:56:24;3.33;;;1.40;;
17965;SDS011;9108;53.204;10.424;2022-09-09T11:58:56;5.13;;;1.48;;
17965;SDS011;9108;53.204;10.424;2022-09-09T12:01:28;3.78;;;1.65;;
17965;SDS011;9108;53.204;10.424;2022-09-09T12:04:01;4.43;;;1.40;;
17965;SDS011;9108;53.204;10.424;2022-09-09T12:06:33;5.80;;;1.70;;
17965;SDS011;9108;53.204;10.424;2022-09-09T12:09:11;5.57;;;1.38;;
17965;SDS011;9108;53.204;10.424;2022-09-09T12:11:40;5.35;;;1.65;;
17965;SDS011;9108;53.204;10.424;2022-09-09T12:14:18;4.00;;;1.48;;
17965;SDS011;9108;53.204;10.424;2022-09-09T12:16:46;4.50;;;1.40;;
17965;SDS011;9108;53.204;10.424;2022-09-09T12:19:14;3.70;;;1.20;;
17965;SDS011;9108;53.204;10.424;2022-09-09T12:21:44;5.28;;;1.45;;
17965;SDS011;9108;53.204;10.424;2022-09-09T12:24:13;4.00;;;1.20;;
17965;SDS011;9108;53.204;10.424;2022-09-09T12:26:47;4.30;;;1.30;;
17965;SDS011;9108;53.204;10.424;2022-09-09T12:29:24;4.00;;;1.10;;
17965;SDS011;9108;53.204;10.424;2022-09-09T12:31:54;4.40;;;1.17;;
17965;SDS011;9108;53.204;10.424;2022-09-09T12:34:27;4.40;;;1.35;;
17965;SDS011;9108;53.204;10.424;2022-09-09T12:36:58;3.88;;;1.30;;
17965;SDS011;9108;53.204;10.424;2022-09-09T12:39:28;3.53;;;1.30;;
17965;SDS011;9108;53.204;10.424;2022-09-09T12:41:56;4.97;;;1.30;;
17965;SDS011;9108;53.204;10.424;2022-09-09T12:44:25;3.47;;;1.10;;
17965;SDS011;9108;53.204;10.424;2022-09-09T12:46:53;4.65;;;1.00;;
17965;SDS011;9108;53.204;10.424;2022-09-09T12:49:26;2.38;;;0.90;;
17965;SDS011;9108;53.204;10.424;2022-09-09T12:51:56;3.05;;;0.80;;
17965;SDS011;9108;53.204;10.424;2022-09-09T12:54:23;3.00;;;1.00;;
17965;SDS011;9108;53.204;10.424;2022-09-09T12:56:50;2.95;;;1.05;;
17965;SDS011;9108;53.204;10.424;2022-09-09T12:59:22;4.25;;;1.20;;
17965;SDS011;9108;53.204;10.424;2022-09-09T13:01:56;4.70;;;1.40;;
17965;SDS011;9108;53.204;10.424;2022-09-09T13:04:23;2.83;;;1.30;;
17965;SDS011;9108;53.204;10.424;2022-09-09T13:06:50;4.82;;;1.40;;
17965;SDS011;9108;53.204;10.424;2022-09-09T13:09:18;3.83;;;1.58;;
17965;SDS011;9108;53.204;10.424;2022-09-09T13:11:46;5.13;;;1.50;;
17965;SDS011;9108;53.204;10.424;2022-09-09T13:14:15;3.63;;;1.40;;
17965;SDS011;9108;53.204;10.424;2022-09-09T13:16:43;4.65;;;1.40;;
17965;SDS011;9108;53.204;10.424;2022-09-09T13:19:22;2.58;;;1.20;;
17965;SDS011;9108;53.204;10.424;2022-09-09T13:21:50;3.47;;;1.00;;
17965;SDS011;9108;53.204;10.424;2022-09-09T13:24:28;4.75;;;1.25;;
17965;SDS011;9108;53.204;10.424;2022-09-09T13:26:56;3.15;;;1.10;;
17965;SDS011;9108;53.204;10.424;2022-09-09T13:29:23;2.57;;;1.03;;
17965;SDS011;9108;53.204;10.424;2022-09-09T13:31:50;2.72;;;1.25;;
17965;SDS011;9108;53.204;10.424;2022-09-09T13:34:26;5.30;;;1.40;;
17965;SDS011;9108;53.204;10.424;2022-09-09T13:36:54;4.03;;;1.42;;
17965;SDS011;9108;53.204;10.424;2022-09-09T13:39:24;3.47;;;1.42;;
17965;SDS011;9108;53.204;10.424;2022-09-09T13:41:51;6.03;;;1.80;;
17965;SDS011;9108;53.204;10.424;2022-09-09T13:44:20;5.07;;;1.90;;
17965;SDS011;9108;53.204;10.424;2022-09-09T13:46:58;4.72;;;1.80;;
17965;SDS011;9108;53.204;10.424;2022-09-09T13:49:27;5.30;;;2.00;;
17965;SDS011;9108;53.204;10.424;2022-09-09T13:52:02;4.82;;;2.03;;
17965;SDS011;9108;53.204;10.424;2022-09-09T13:54:31;5.03;;;1.80;;
17965;SDS011;9108;53.204;10.424;2022-09-09T13:56:58;5.13;;;1.90;;
17965;SDS011;9108;53.204;10.424;2022-09-09T13:59:26;5.00;;;1.70;;
17965;SDS011;9108;53.204;10.424;2022-09-09T14:01:53;3.42;;;0.90;;
17965;SDS011;9108;53.204;10.424;2022-09-09T14:04:20;3.40;;;0.90;;
17965;SDS011;9108;53.204;10.424;2022-09-09T14:06:48;3.47;;;1.10;;
17965;SDS011;9108;53.204;10.424;2022-09-09T14:09:16;3.10;;;1.00;;
17965;SDS011;9108;53.204;10.424;2022-09-09T14:11:44;5.40;;;0.90;;
17965;SDS011;9108;53.204;10.424;2022-09-09T14:14:32;2.40;;;1.00;;
17965;SDS011;9108;53.204;10.424;2022-09-09T14:17:04;2.97;;;1.10;;
17965;SDS011;9108;53.204;10.424;2022-09-09T14:19:33;2.30;;;0.80;;
17965;SDS011;9108;53.204;10.424;2022-09-09T14:22:03;3.22;;;0.80;;
17965;SDS011;9108;53.204;10.424;2022-09-09T14:24:30;1.60;;;0.63;;
17965;SDS011;9108;53.204;10.424;2022-09-09T14:26:58;3.25;;;0.50;;
17965;SDS011;9108;53.204;10.424;2022-09-09T14:29:25;1.87;;;0.57;;
17965;SDS011;9108;53.204;10.424;2022-09-09T14:31:52;2.83;;;0.57;;
17965;SDS011;9108;53.204;10.424;2022-09-09T14:34:19;2.70;;;0.60;;
17965;SDS011;9108;53.204;10.424;2022-09-09T14:36:46;2.53;;;0.52;;
17965;SDS011;9108;53.204;10.424;2022-09-09T14:39:14;3.50;;;0.50;;
17965;SDS011;9108;53.204;10.424;2022-09-09T14:41:41;2.20;;;0.60;;
17965;SDS011;9108;53.204;10.424;2022-09-09T14:44:09;1.65;;;0.60;;
17965;SDS011;9108;53.204;10.424;2022-09-09T14:46:36;1.83;;;0.60;;
17965;SDS011;9108;53.204;10.424;2022-09-09T14:49:03;2.03;;;0.50;;
17965;SDS011;9108;53.204;10.424;2022-09-09T14:51:30;1.17;;;0.52;;
17965;SDS011;9108;53.204;10.424;2022-09-09T14:53:58;3.15;;;0.60;;